This demonstration page uses our WeatherBlox Daily Observations layout. Learn more.

39.08367, -84.50855

Hourly Observations for June 25, 2019

Temp ( °F °C ) Dew Point ( °F °C ) Humidity (%) Winds ( mph kmh ) Pressure ( in mb ) Visibility ( mi km ) Precip ( " mm )
12:53 am 00:53 Mostly Cloudy 70 21.1 67 19.4 90 90 SW 8 13 29.83 1010 10 16.09344 0.001 0.001
1:53 am 01:53 Partly Cloudy 69 20.6 67 19.4 93 93 SSW 8 13 29.85 1011 10 16.09344 0.001 0.001
2:53 am 02:53 Clear 67 19.4 65 18.3 93 93 S 5 7 29.85 1011 10 16.09344 0 0
3:53 am 03:53 Clear 66 18.9 64 17.8 93 93 SSW 3 6 29.85 1011 10 16.09344 0 0
4:53 am 04:53 Clear 66 18.9 64 17.8 93 93 S 5 7 29.88 1012 10 16.09344 0 0
5:53 am 05:53 Clear 64 17.8 62 16.7 93 93 SSW 7 11 29.91 1013 10 16.09344 0 0
6:53 am 06:53 Sunny 65 18.3 63 17.2 93 93 SSW 5 7 29.94 1014 10 16.09344 0 0
7:53 am 07:53 Sunny 67 19.4 64 17.8 91 91 WSW 6 9 29.94 1014 10 16.09344 0 0
8:53 am 08:53 Sunny 71 21.7 65 18.3 81 81 WSW 7 11 29.97 1015 10 16.09344 0 0
9:53 am 09:53 Sunny 73 22.8 65 18.3 76 76 WSW 8 13 29.97 1015 10 16.09344 0 0
10:53 am 10:53 Sunny 76 24.4 65 18.3 69 69 SW 6 9 30 1016 10 16.09344 0 0
11:53 am 11:53 Sunny 79 26.1 62 16.7 56 56 WNW 8 13 30 1016 10 16.09344 0 0
12:53 pm 12:53 Mostly Sunny 80 26.7 63 17.2 56 56 W 8 13 30 1016 10 16.09344 0 0
1:53 pm 13:53 Mostly Sunny 81 27.2 62 16.7 53 53 WSW 14 22 30 1016 10 16.09344 0 0
2:53 pm 14:53 Partly Cloudy 83 28.3 62 16.7 49 49 W 15 24 30 1016 10 16.09344 0 0
3:53 pm 15:53 Mostly Sunny 83 28.3 61 16.1 48 48 SW 12 19 29.97 1015 10 16.09344 0 0
4:53 pm 16:53 Sunny 83 28.3 61 16.1 48 48 W 14 22 29.97 1015 10 16.09344 0 0
5:53 pm 17:53 Mostly Sunny 82 27.8 62 16.7 51 51 WSW 9 15 29.97 1015 10 16.09344 0 0
6:53 pm 18:53 Mostly Sunny 81 27.2 60 15.6 49 49 SW 12 19 29.97 1015 10 16.09344 0 0
7:53 pm 19:53 Sunny 79 26.1 60 15.6 52 52 SSW 10 17 29.97 1015 10 16.09344 0 0
8:53 pm 20:53 Sunny 74 23.3 63 17.2 69 69 S 6 9 30 1016 10 16.09344 0 0
9:53 pm 21:53 Clear 71 21.7 64 17.8 79 79 SW 3 6 30 1016 10 16.09344 0 0
10:53 pm 22:53 Clear 69 20.6 65 18.3 87 87 Calm 30 1016 10 16.09344 0 0
11:53 pm 23:53 Clear 68 20 64 17.8 87 87 Calm 30.03 1017 10 16.09344 0 0

Powered by AerisWeather